Roanoke, Louisiana
Current Conditions -  °F | °C
As of 7:35 PM on Tuesday 21 Oct 2014 (Local Time) from K3R7 Reporting Station
Clear Clear  
Wind Chill: 70°   Ceiling: Unl
Heat Index: 70°   Visibility: 10mi
Dew Point: 60°   Wind: 5mph
Humidity: 70%   Direction: 30°NNE
Pressure: 30"   Gusts: NA
Location:  30.24°N, 92.75°W
Report Text: K3R7 220035Z AUTO 03004KT 10SM CLR 21/16 A3000 RMK AO2 T02110155
Loading
Personal Weather Stations






























Interactive Weather Map
Tropical Storm Tracking
New forecast layout! Learn more

10-Day Weather Forecast

Advertisements
Track Severe Weather on mobile